Time;durP1;ratioP1;P1;durP2;ratioP2;P2;SDS_P1;SDS_P2;PMS_P1;PMS_P2;Temp;Humidity;BMP_temperature;BMP_pressure;BME280_temperature;BME280_humidity;BME280_pressure;Samples;Min_cycle;Max_cycle;Signal;HPM_P1;HPM_P2
2022/12/18 00:01:48;;;;;;;14.03;7.27;;;;;;;-5.36;83.14;102258.06;5046454;28;20244;-84
2022/12/18 00:04:20;;;;;;;11.23;7.33;;;;;;;-5.38;82.83;102264.09;5045090;28;21466;-81
2022/12/18 00:06:48;;;;;;;13.87;8.00;;;;;;;-5.39;83.00;102252.84;5039636;28;20656;-82
2022/12/18 00:09:15;;;;;;;12.93;7.87;;;;;;;-5.39;82.92;102260.63;5045049;28;20202;-82
2022/12/18 00:11:42;;;;;;;13.43;7.63;;;;;;;-5.41;82.89;102254.50;5046878;28;20226;-84
2022/12/18 00:14:11;;;;;;;12.30;7.60;;;;;;;-5.39;82.87;102255.44;5044330;28;20210;-83
2022/12/18 00:16:38;;;;;;;9.87;6.83;;;;;;;-5.38;83.38;102248.53;5043548;28;20578;-83
2022/12/18 00:19:05;;;;;;;11.03;7.03;;;;;;;-5.38;83.08;102256.31;5043110;28;20218;-84
2022/12/18 00:21:33;;;;;;;11.80;6.83;;;;;;;-5.38;83.36;102264.09;5046709;28;20221;-83
2022/12/18 00:24:01;;;;;;;11.20;7.13;;;;;;;-5.37;83.47;102258.91;5047392;28;20221;-82
2022/12/18 00:26:30;;;;;;;14.10;7.60;;;;;;;-5.35;83.20;102266.75;5040338;28;20233;-84
2022/12/18 00:28:59;;;;;;;11.73;7.10;;;;;;;-5.36;83.11;102265.88;5047734;28;20206;-84
2022/12/18 00:31:26;;;;;;;11.97;7.30;;;;;;;-5.35;83.44;102272.81;5044600;28;20221;-82
2022/12/18 00:33:54;;;;;;;11.30;7.13;;;;;;;-5.36;83.34;102275.38;5046783;28;20237;-83
2022/12/18 00:36:23;;;;;;;12.07;7.23;;;;;;;-5.37;83.42;102281.41;5047932;28;20207;-83
2022/12/18 00:38:50;;;;;;;14.83;7.27;;;;;;;-5.38;83.20;102270.16;5045669;28;20657;-83
2022/12/18 00:42:55;;;;;;;13.70;6.93;;;;;;;-5.40;83.50;102271.84;5049742;28;20241;-83
2022/12/18 00:44:06;;;;;;;12.90;7.47;;;;;;;-5.41;83.26;102274.38;5050841;28;20270;-82
2022/12/18 00:46:33;;;;;;;16.10;7.67;;;;;;;-5.43;83.35;102281.25;5040097;28;20263;-84
2022/12/18 00:48:59;;;;;;;11.90;7.20;;;;;;;-5.48;82.92;102288.91;5050564;28;20206;-86
2022/12/18 00:51:26;;;;;;;11.37;6.87;;;;;;;-5.52;82.82;102281.88;5051795;28;20225;-84
2022/12/18 00:53:53;;;;;;;11.17;7.47;;;;;;;-5.54;82.82;102287.84;5054137;28;20210;-84
2022/12/18 00:56:21;;;;;;;11.13;6.97;;;;;;;-5.57;82.64;102296.44;5042716;28;20202;-82
2022/12/18 00:58:48;;;;;;;10.60;6.27;;;;;;;-5.62;82.67;102304.09;5055403;28;20202;-84
2022/12/18 01:01:15;;;;;;;15.63;7.40;;;;;;;-5.68;82.08;102303.03;5055346;28;20230;-83
2022/12/18 01:03:41;;;;;;;11.23;6.53;;;;;;;-5.76;81.78;102286.38;5047549;28;20642;-83
2022/12/18 01:06:08;;;;;;;11.90;6.93;;;;;;;-5.91;81.27;102281.63;5057919;28;20212;-82
2022/12/18 01:08:35;;;;;;;13.13;6.47;;;;;;;-6.05;80.70;102277.75;5054841;28;20205;-84
2022/12/18 01:11:07;;;;;;;11.67;6.53;;;;;;;-6.18;79.97;102275.63;5050579;28;20254;-85
2022/12/18 01:13:35;;;;;;;10.27;6.40;;;;;;;-6.28;80.02;102289.16;5052245;28;20197;-85
2022/12/18 01:16:02;;;;;;;13.53;7.23;;;;;;;-6.36;79.97;102297.53;5055645;28;20213;-84
2022/12/18 01:18:28;;;;;;;15.10;7.43;;;;;;;-6.41;80.08;102296.50;5054437;28;20648;-85
2022/12/18 01:20:55;;;;;;;8.67;6.43;;;;;;;-6.43;80.54;102300.75;5045045;28;20237;-84
2022/12/18 01:23:21;;;;;;;12.33;7.83;;;;;;;-6.45;80.69;102301.56;5050325;28;20210;-83
2022/12/18 01:25:48;;;;;;;11.93;7.87;;;;;;;-6.48;80.74;102302.34;5049733;28;20203;-85
2022/12/18 01:28:14;;;;;;;13.17;7.90;;;;;;;-6.48;80.90;102307.53;5043074;28;20237;-83
2022/12/18 01:30:42;;;;;;;11.77;7.53;;;;;;;-6.48;80.95;102304.06;5043740;28;20232;-83
2022/12/18 01:33:08;;;;;;;16.00;8.07;;;;;;;-6.49;80.83;102305.78;5058304;28;20659;-83
2022/12/18 01:35:41;;;;;;;12.07;7.33;;;;;;;-6.50;80.99;102304.00;5045900;28;20536;-83
2022/12/18 01:38:08;;;;;;;13.00;7.20;;;;;;;-6.50;80.94;102295.34;5040399;28;20217;-81
2022/12/18 01:40:34;;;;;;;15.23;7.00;;;;;;;-6.52;81.66;102295.31;5051801;28;20229;-82
2022/12/18 01:43:01;;;;;;;10.70;6.80;;;;;;;-6.56;81.59;102306.38;5050484;28;20209;-81
2022/12/18 01:45:29;;;;;;;15.60;7.37;;;;;;;-6.60;81.38;102301.03;5047333;28;20202;-82
2022/12/18 01:48:00;;;;;;;10.80;7.33;;;;;;;-6.65;81.24;102313.88;5051547;28;20214;-82
2022/12/18 01:50:31;;;;;;;12.60;8.10;;;;;;;-6.68;81.41;102311.19;5042020;28;20704;-81
2022/12/18 01:53:00;;;;;;;11.33;7.40;;;;;;;-6.70;81.87;102312.84;5050934;28;20205;-82
2022/12/18 01:55:30;;;;;;;12.33;8.17;;;;;;;-6.71;81.44;102313.66;5048582;28;20201;-83
2022/12/18 01:57:59;;;;;;;13.80;8.20;;;;;;;-6.73;81.89;102315.31;5049426;28;20225;-82
2022/12/18 02:00:27;;;;;;;11.87;6.73;;;;;;;-6.74;82.09;102314.44;5050884;28;20229;-83
2022/12/18 02:02:54;;;;;;;13.77;7.47;;;;;;;-6.74;82.38;102306.66;5053283;28;20224;-82
2022/12/18 02:05:30;;;;;;;11.40;7.23;;;;;;;-6.75;82.24;102312.69;5052824;28;20206;-81
2022/12/18 02:08:08;;;;;;;12.07;6.93;;;;;;;-6.75;82.25;102311.78;5055979;28;20204;-78
2022/12/18 02:10:40;;;;;;;15.87;7.37;;;;;;;-6.77;82.13;102314.31;5044644;28;20228;-82
2022/12/18 02:13:14;;;;;;;11.33;7.87;;;;;;;-6.76;82.18;102315.22;5045968;28;20652;-80
2022/12/18 02:15:49;;;;;;;11.93;7.50;;;;;;;-6.78;82.49;102315.16;5046690;28;20573;-83
2022/12/18 02:18:20;;;;;;;11.33;7.20;;;;;;;-6.79;82.42;102315.09;5044713;28;20221;-80
2022/12/18 02:20:55;;;;;;;14.73;7.67;;;;;;;-6.82;82.46;102307.25;5049416;28;20226;-83
2022/12/18 02:23:40;;;;;;;10.27;6.70;;;;;;;-6.84;83.01;102307.19;5053518;28;20219;-84
2022/12/18 02:26:20;;;;;;;12.63;7.30;;;;;;;-6.86;82.33;102305.38;5051204;28;20216;-82
2022/12/18 02:28:52;;;;;;;11.90;7.30;;;;;;;-6.88;82.83;102305.31;5039322;28;20206;-82
2022/12/18 02:31:24;;;;;;;14.63;7.80;;;;;;;-6.88;82.78;102312.22;5042938;28;20222;-80
2022/12/18 02:33:52;;;;;;;13.43;7.67;;;;;;;-6.88;82.98;102304.44;5048663;28;20214;-81
2022/12/18 02:36:22;;;;;;;13.40;8.00;;;;;;;-6.87;82.99;102306.22;5043992;28;20243;-82
2022/12/18 02:38:51;;;;;;;13.60;7.70;;;;;;;-6.87;82.80;102295.84;5050462;28;20213;-81
2022/12/18 02:41:19;;;;;;;13.20;7.93;;;;;;;-6.89;83.23;102292.31;5050789;28;21373;-81
2022/12/18 02:43:50;;;;;;;13.33;6.60;;;;;;;-6.90;83.14;102306.09;5060359;28;20198;-81
2022/12/18 02:46:30;;;;;;;12.20;7.40;;;;;;;-6.91;82.88;102294.84;5049652;28;20288;-82
2022/12/18 02:49:05;;;;;;;11.27;6.83;;;;;;;-6.93;82.77;102293.03;5051633;28;20577;-83
2022/12/18 02:51:40;;;;;;;13.83;6.63;;;;;;;-6.92;82.87;102294.81;5049065;28;20225;-82
2022/12/18 02:54:11;;;;;;;10.23;6.83;;;;;;;-6.91;83.86;102289.69;5050379;28;20209;-81
2022/12/18 02:56:46;;;;;;;12.80;7.13;;;;;;;-6.87;83.74;102291.56;5052746;28;20298;-81
2022/12/18 02:59:16;;;;;;;12.23;6.27;;;;;;;-6.84;83.54;102289.06;5050451;28;20651;-83
2022/12/18 03:01:52;;;;;;;11.30;6.37;;;;;;;-6.78;84.29;102286.66;5050817;28;20229;-82
2022/12/18 03:04:26;;;;;;;10.33;6.40;;;;;;;-6.71;84.45;102287.75;5044118;28;20573;-82
2022/12/18 03:06:57;;;;;;;11.20;6.77;;;;;;;-6.65;84.13;102290.56;5048991;28;20210;-82
2022/12/18 03:09:30;;;;;;;10.80;6.13;;;;;;;-6.60;84.84;102290.69;5054655;28;20197;-83
2022/12/18 03:12:23;;;;;;;11.97;6.47;;;;;;;-6.55;85.06;102290.00;5053623;28;20244;-82
2022/12/18 03:14:55;;;;;;;13.17;6.43;;;;;;;-6.53;84.99;102285.75;5050125;28;20582;-83
2022/12/18 03:17:25;;;;;;;11.03;6.17;;;;;;;-6.52;85.34;102290.13;5048038;28;20194;-83
2022/12/18 03:19:55;;;;;;;11.00;6.57;;;;;;;-6.47;85.40;102287.69;5046262;28;20202;-82
2022/12/18 03:22:24;;;;;;;11.80;6.80;;;;;;;-6.44;85.83;102287.75;5046844;28;20289;-82
2022/12/18 03:24:53;;;;;;;13.50;6.90;;;;;;;-6.40;85.63;102292.22;5054281;28;20359;-82
2022/12/18 03:27:23;;;;;;;13.40;6.03;;;;;;;-6.38;85.92;102277.59;5046106;28;20214;-81
2022/12/18 03:29:53;;;;;;;11.40;6.37;;;;;;;-6.34;86.12;102285.53;5053930;28;20216;-84
2022/12/18 03:32:26;;;;;;;10.33;5.57;;;;;;;-6.27;86.02;102288.31;5048261;28;20285;-84
2022/12/18 03:34:58;;;;;;;11.03;6.83;;;;;;;-6.18;86.82;102289.47;5050437;28;20205;-84
2022/12/18 03:37:25;;;;;;;10.70;6.40;;;;;;;-6.11;86.39;102282.75;5048492;28;20293;-83
2022/12/18 03:39:51;;;;;;;9.27;5.87;;;;;;;-6.04;87.29;102280.38;5049759;28;20289;-84
2022/12/18 03:42:29;;;;;;;10.93;6.10;;;;;;;-5.97;87.25;102295.31;5050132;28;20308;-83
2022/12/18 03:45:02;;;;;;;10.40;6.13;;;;;;;-5.91;87.14;102289.41;5046180;28;20206;-80
2022/12/18 03:47:37;;;;;;;10.83;6.43;;;;;;;-5.85;86.86;102296.47;5043877;28;20209;-80
2022/12/18 03:50:14;;;;;;;9.27;6.53;;;;;;;-5.82;86.74;102289.66;5048339;28;20209;-80
2022/12/18 03:52:48;;;;;;;9.30;6.03;;;;;;;-5.83;86.54;102287.91;5042497;28;20278;-85
2022/12/18 03:55:15;;;;;;;11.90;6.03;;;;;;;-5.81;86.97;102277.56;5054881;28;20210;-83
2022/12/18 03:57:43;;;;;;;11.60;6.50;;;;;;;-5.77;86.65;102276.81;5055416;28;20198;-83
2022/12/18 04:00:14;;;;;;;7.83;4.97;;;;;;;-5.73;86.98;102278.69;5050599;28;20206;-85
2022/12/18 04:02:45;;;;;;;8.17;4.87;;;;;;;-5.68;87.10;102267.56;5050624;28;20219;-81
2022/12/18 04:05:13;;;;;;;11.73;5.77;;;;;;;-5.63;86.87;102268.59;5057185;28;20194;-82
2022/12/18 04:07:41;;;;;;;7.60;3.63;;;;;;;-5.56;87.01;102271.38;5049792;28;20205;-84
2022/12/18 04:10:10;;;;;;;11.73;6.43;;;;;;;-5.52;86.97;102286.16;5048857;28;20205;-81
2022/12/18 04:12:38;;;;;;;9.50;5.43;;;;;;;-5.50;86.80;102293.16;5049536;28;20664;-82
2022/12/18 04:15:07;;;;;;;10.07;5.43;;;;;;;-5.45;86.78;102291.59;5053043;28;20213;-82
2022/12/18 04:17:34;;;;;;;10.03;6.13;;;;;;;-5.45;86.28;102283.81;5050296;28;20201;-83
2022/12/18 04:20:01;;;;;;;8.40;5.53;;;;;;;-5.49;86.53;102289.75;5054059;28;20289;-80
2022/12/18 04:22:27;;;;;;;11.47;6.37;;;;;;;-5.53;86.07;102294.78;5051226;28;20304;-82
2022/12/18 04:24:54;;;;;;;11.40;7.13;;;;;;;-5.57;86.40;102299.03;5049906;28;20206;-80
2022/12/18 04:27:20;;;;;;;10.60;6.40;;;;;;;-5.62;86.12;102301.50;5045580;28;20266;-84
2022/12/18 04:29:47;;;;;;;10.00;6.13;;;;;;;-5.66;85.71;102290.97;5042231;28;20222;-85
2022/12/18 04:32:15;;;;;;;12.97;6.33;;;;;;;-5.73;85.61;102296.84;5050016;28;20229;-83
2022/12/18 04:34:41;;;;;;;10.27;6.27;;;;;;;-5.75;85.53;102301.09;5048225;28;20202;-82
2022/12/18 04:37:08;;;;;;;11.40;6.40;;;;;;;-5.84;85.65;102301.69;5050600;28;20232;-82
2022/12/18 04:39:35;;;;;;;7.90;5.83;;;;;;;-5.91;85.25;102302.38;5048276;28;20232;-81
2022/12/18 04:42:02;;;;;;;9.67;5.60;;;;;;;-5.98;84.78;102293.56;5055695;28;20229;-79
2022/12/18 04:44:28;;;;;;;9.50;5.80;;;;;;;-6.04;84.76;102285.56;5045989;28;20225;-83
2022/12/18 04:46:55;;;;;;;10.47;7.03;;;;;;;-6.10;84.78;102285.41;5052771;28;20204;-81
2022/12/18 04:49:23;;;;;;;11.17;6.13;;;;;;;-6.15;84.19;102293.88;5038363;28;20221;-83
2022/12/18 04:51:50;;;;;;;8.00;5.10;;;;;;;-6.20;84.14;102288.53;5051071;28;20224;-82
2022/12/18 04:54:16;;;;;;;10.80;5.77;;;;;;;-6.23;84.15;102287.56;5061585;28;20209;-81
2022/12/18 04:56:43;;;;;;;9.53;5.83;;;;;;;-6.25;83.96;102284.91;5051504;28;20210;-82
2022/12/18 04:59:09;;;;;;;8.90;5.53;;;;;;;-6.23;83.97;102284.97;5038980;28;20548;-82
2022/12/18 05:01:36;;;;;;;8.70;5.30;;;;;;;-6.21;84.40;102280.69;5059057;28;20250;-81
2022/12/18 05:04:02;;;;;;;10.17;5.47;;;;;;;-6.15;84.19;102283.50;5046099;28;20216;-81
2022/12/18 05:06:30;;;;;;;11.03;5.23;;;;;;;-6.04;84.61;102279.50;5044448;28;20206;-82
2022/12/18 05:08:57;;;;;;;8.10;5.07;;;;;;;-5.95;85.05;102279.78;5053613;28;20292;-84
2022/12/18 05:11:24;;;;;;;9.03;5.47;;;;;;;-5.87;85.30;102282.56;5049532;28;20222;-82
2022/12/18 05:13:53;;;;;;;8.13;4.77;;;;;;;-5.81;85.11;102278.44;5043340;28;20920;-84
2022/12/18 05:16:20;;;;;;;8.13;4.70;;;;;;;-5.76;84.77;102289.84;5041135;28;20206;-82
2022/12/18 05:18:46;;;;;;;6.93;4.83;;;;;;;-5.73;85.01;102294.25;5048750;28;20209;-82
2022/12/18 05:21:13;;;;;;;8.60;5.57;;;;;;;-5.72;85.27;102303.75;5051358;28;20226;-82
2022/12/18 05:23:41;;;;;;;7.20;5.10;;;;;;;-5.74;85.15;102295.97;5050087;28;20238;-80
2022/12/18 05:26:08;;;;;;;8.17;4.77;;;;;;;-5.74;85.06;102295.09;5052091;28;20205;-83
2022/12/18 05:28:36;;;;;;;7.40;4.50;;;;;;;-5.74;84.25;102300.28;5052934;28;20213;-83
2022/12/18 05:31:04;;;;;;;7.80;4.67;;;;;;;-5.75;84.61;102298.50;5049113;28;20613;-79
2022/12/18 05:33:33;;;;;;;9.40;5.30;;;;;;;-5.77;84.46;102306.25;5047881;28;20194;-83
2022/12/18 05:36:01;;;;;;;10.67;5.80;;;;;;;-5.80;84.12;102300.97;5041911;28;20206;-82
2022/12/18 05:38:29;;;;;;;8.70;5.40;;;;;;;-5.82;84.12;102302.63;5053888;28;20636;-85
2022/12/18 05:40:57;;;;;;;9.27;4.70;;;;;;;-5.84;84.37;102304.28;5047849;28;20224;-82
2022/12/18 05:43:25;;;;;;;10.57;4.93;;;;;;;-5.85;84.36;102306.84;5047777;28;20230;-85
2022/12/18 05:45:52;;;;;;;10.30;5.93;;;;;;;-5.85;84.32;102306.84;5059310;28;20209;-85
2022/12/18 05:48:19;;;;;;;8.93;4.63;;;;;;;-5.88;84.19;102310.22;5057719;28;20198;-81
2022/12/18 05:50:47;;;;;;;7.47;5.30;;;;;;;-5.90;84.21;102319.69;5053440;28;20229;-84
2022/12/18 05:53:15;;;;;;;9.40;5.07;;;;;;;-5.93;83.81;102317.03;5049557;28;20207;-82
2022/12/18 05:55:43;;;;;;;7.87;5.43;;;;;;;-5.97;83.78;102316.06;5055894;28;20594;-82
2022/12/18 05:58:13;;;;;;;8.07;4.97;;;;;;;-6.01;83.66;102328.88;5043553;28;20202;-83
2022/12/18 06:00:42;;;;;;;7.43;4.80;;;;;;;-6.07;83.89;102329.56;5052815;28;20276;-84
2022/12/18 06:03:10;;;;;;;8.27;4.90;;;;;;;-6.10;83.68;102337.28;5043660;28;20237;-83
2022/12/18 06:05:37;;;;;;;7.07;4.67;;;;;;;-6.15;83.56;102333.66;5041866;28;20210;-83
2022/12/18 06:08:04;;;;;;;9.63;4.10;;;;;;;-6.17;83.40;102331.84;5046920;28;20443;-82
2022/12/18 06:10:31;;;;;;;9.17;4.83;;;;;;;-6.21;83.32;102337.75;5043847;28;20674;-84
2022/12/18 06:12:57;;;;;;;8.53;5.40;;;;;;;-6.24;82.90;102337.66;5050897;28;20205;-81
2022/12/18 06:15:25;;;;;;;8.33;5.63;;;;;;;-6.31;82.67;102334.88;5061995;28;20205;-81
2022/12/18 06:17:52;;;;;;;8.60;5.40;;;;;;;-6.34;83.12;102332.19;5043556;28;20210;-85
2022/12/18 06:20:18;;;;;;;7.97;5.43;;;;;;;-6.38;82.58;102340.69;5050486;28;20221;-84
2022/12/18 06:22:45;;;;;;;8.67;5.40;;;;;;;-6.42;82.60;102333.63;5054919;28;20222;-84
2022/12/18 06:25:11;;;;;;;10.73;5.70;;;;;;;-6.45;82.63;102343.91;5060712;28;20213;-85
2022/12/18 06:27:38;;;;;;;10.83;5.50;;;;;;;-6.49;82.36;102339.47;5053035;28;20206;-80
2022/12/18 06:30:05;;;;;;;8.47;4.77;;;;;;;-6.46;82.53;102328.31;5053087;28;20619;-83
2022/12/18 06:32:33;;;;;;;7.90;4.77;;;;;;;-6.37;82.95;102332.06;5048985;28;20197;-81
2022/12/18 06:35:00;;;;;;;8.43;4.40;;;;;;;-6.27;83.11;102328.09;5051802;28;20225;-81
2022/12/18 06:37:27;;;;;;;6.90;4.57;;;;;;;-6.16;83.16;102333.59;5045043;28;20289;-85
2022/12/18 06:39:53;;;;;;;8.53;5.10;;;;;;;-6.10;83.56;102326.03;5051372;28;20293;-83
2022/12/18 06:42:20;;;;;;;8.63;4.83;;;;;;;-6.07;83.64;102337.34;5041912;28;20226;-84
2022/12/18 06:44:46;;;;;;;10.80;4.83;;;;;;;-6.05;83.57;102329.63;5044311;28;20206;-83
2022/12/18 06:47:13;;;;;;;8.10;4.97;;;;;;;-6.04;84.16;102329.66;5057247;28;20201;-82
2022/12/18 06:49:41;;;;;;;11.77;5.57;;;;;;;-6.03;83.70;102333.13;5046515;28;20713;-83
2022/12/18 06:52:07;;;;;;;8.50;5.07;;;;;;;-6.02;83.66;102342.69;5045790;28;20688;-83
2022/12/18 06:54:34;;;;;;;9.03;5.77;;;;;;;-6.02;83.68;102342.69;5048366;28;20218;-83
2022/12/18 06:57:00;;;;;;;11.93;5.83;;;;;;;-6.02;83.90;102340.09;5056195;28;20269;-82
2022/12/18 06:59:27;;;;;;;10.23;5.30;;;;;;;-6.03;83.79;102335.72;5038708;28;20290;-82
2022/12/18 07:01:54;;;;;;;12.70;5.80;;;;;;;-6.04;83.69;102337.44;5049901;28;20226;-82
2022/12/18 07:04:20;;;;;;;9.07;5.33;;;;;;;-6.03;83.64;102348.69;5057348;28;20272;-82
2022/12/18 07:06:48;;;;;;;8.60;5.00;;;;;;;-6.05;83.60;102342.59;5050415;28;20209;-83
2022/12/18 07:09:15;;;;;;;10.03;5.97;;;;;;;-6.03;83.39;102348.69;5050130;28;20281;-82
2022/12/18 07:11:41;;;;;;;10.37;4.97;;;;;;;-6.04;83.91;102357.31;5053622;28;20328;-83
2022/12/18 07:14:08;;;;;;;8.50;5.00;;;;;;;-6.02;83.88;102353.06;5048111;28;20209;-82
2022/12/18 07:16:34;;;;;;;12.17;4.87;;;;;;;-6.03;83.63;102357.38;5056099;28;20205;-83
2022/12/18 07:19:01;;;;;;;7.07;4.73;;;;;;;-6.01;83.57;102349.63;5059683;28;20228;-82
2022/12/18 07:21:27;;;;;;;9.23;5.17;;;;;;;-5.99;83.66;102360.94;5050199;28;20221;-81
2022/12/18 07:23:55;;;;;;;10.23;4.60;;;;;;;-5.99;83.78;102367.00;5053465;28;20591;-83
2022/12/18 07:26:22;;;;;;;9.90;4.67;;;;;;;-5.96;83.60;102364.53;5045230;28;20217;-82
2022/12/18 07:28:49;;;;;;;7.83;4.43;;;;;;;-5.92;83.79;102368.09;5052691;28;20573;-82
2022/12/18 07:31:18;;;;;;;7.03;4.10;;;;;;;-5.86;83.77;102375.13;5053346;28;20230;-82
2022/12/18 07:33:46;;;;;;;8.87;5.23;;;;;;;-5.83;83.93;102380.41;5043788;28;20209;-84
2022/12/18 07:36:13;;;;;;;8.83;4.30;;;;;;;-5.82;83.81;102382.19;5052149;28;20232;-80
2022/12/18 07:38:40;;;;;;;8.63;4.37;;;;;;;-5.79;84.15;102379.69;5040610;28;20213;-82
2022/12/18 07:41:10;;;;;;;9.07;4.70;;;;;;;-5.75;84.01;102379.84;5048415;28;20257;-83
2022/12/18 07:43:37;;;;;;;8.10;4.40;;;;;;;-5.69;83.84;102389.50;5037899;28;20223;-83
2022/12/18 07:46:04;;;;;;;9.97;4.23;;;;;;;-5.65;84.27;102396.56;5056046;28;20220;-82
2022/12/18 07:48:31;;;;;;;7.10;3.97;;;;;;;-5.61;84.18;102396.69;5051230;28;20206;-83
2022/12/18 07:50:59;;;;;;;7.23;4.40;;;;;;;-5.56;84.17;102399.44;5059859;28;20624;-82
2022/12/18 07:53:26;;;;;;;8.10;4.70;;;;;;;-5.51;84.38;102394.38;5054814;28;20205;-83
2022/12/18 07:55:56;;;;;;;6.03;3.73;;;;;;;-5.46;84.23;102390.19;5043949;28;20240;-83
2022/12/18 07:58:24;;;;;;;9.00;4.33;;;;;;;-5.44;84.76;102389.41;5059735;28;20205;-85
2022/12/18 08:00:50;;;;;;;11.10;5.00;;;;;;;-5.40;84.35;102380.88;5056018;28;20669;-84
2022/12/18 08:03:17;;;;;;;3.40;2.80;;;;;;;-5.34;84.55;102372.38;5047879;28;20225;-80
2022/12/18 08:05:43;;;;;;;6.17;4.20;;;;;;;-5.30;84.48;102372.50;5053207;28;20300;-82
2022/12/18 08:08:10;;;;;;;5.90;4.07;;;;;;;-5.27;84.61;102372.59;5048588;28;20314;-84
2022/12/18 08:10:38;;;;;;;6.63;4.13;;;;;;;-5.25;84.50;102370.06;5055385;28;20217;-83
2022/12/18 08:13:04;;;;;;;9.73;5.13;;;;;;;-5.21;84.63;102369.31;5048818;28;20206;-84
2022/12/18 08:15:32;;;;;;;7.73;4.73;;;;;;;-5.20;84.67;102373.69;5046538;28;20202;-82
2022/12/18 08:17:59;;;;;;;7.13;4.43;;;;;;;-5.16;84.66;102365.09;5047840;28;20308;-80
2022/12/18 08:20:26;;;;;;;8.83;4.80;;;;;;;-5.14;84.60;102359.97;5046110;28;20308;-84
2022/12/18 08:22:54;;;;;;;7.47;4.50;;;;;;;-5.12;84.71;102361.75;5049796;28;20221;-79
2022/12/18 08:25:20;;;;;;;10.20;4.80;;;;;;;-5.10;84.68;102354.91;5048871;28;20601;-84
2022/12/18 08:27:46;;;;;;;6.87;4.13;;;;;;;-5.07;84.67;102355.00;5056915;28;20213;-80
2022/12/18 08:30:13;;;;;;;7.00;4.77;;;;;;;-5.04;84.86;102347.28;5050775;28;20225;-84
2022/12/18 08:32:41;;;;;;;10.30;5.30;;;;;;;-5.02;84.55;102343.00;5050484;28;20202;-81
2022/12/18 08:35:11;;;;;;;7.00;5.07;;;;;;;-4.99;84.67;102342.19;5053978;28;20216;-82
2022/12/18 08:37:38;;;;;;;7.33;4.60;;;;;;;-4.97;84.82;102337.91;5051776;28;20463;-83
2022/12/18 08:40:06;;;;;;;8.53;4.43;;;;;;;-4.92;85.13;102347.59;5043499;28;20201;-81
2022/12/18 08:45:17;;;;;;;7.27;4.03;;;;;;;-4.78;85.07;102337.56;5052742;28;20208;-81
2022/12/18 08:47:45;;;;;;;6.90;3.70;;;;;;;-4.72;84.93;102332.53;5047323;28;20217;-81
2022/12/18 08:50:12;;;;;;;5.47;3.53;;;;;;;-4.66;85.21;102326.63;5048281;28;20214;-84
2022/12/18 08:52:39;;;;;;;6.77;3.43;;;;;;;-4.60;85.14;102330.25;5046286;28;20252;-82
2022/12/18 08:55:06;;;;;;;6.90;4.03;;;;;;;-4.53;85.11;102314.81;5049579;28;20656;-81
2022/12/18 08:57:36;;;;;;;7.20;3.60;;;;;;;-4.49;85.03;102325.31;5056594;28;20209;-81
2022/12/18 09:00:03;;;;;;;9.43;4.10;;;;;;;-4.43;85.21;102337.56;5052409;28;20206;-82
2022/12/18 09:02:29;;;;;;;6.37;3.87;;;;;;;-4.35;84.79;102341.25;5052651;28;20213;-82
2022/12/18 09:04:57;;;;;;;5.50;3.37;;;;;;;-4.30;84.97;102334.47;5054589;28;20217;-83
2022/12/18 09:07:24;;;;;;;6.30;3.40;;;;;;;-4.18;84.45;102328.66;5056044;28;20205;-81
2022/12/18 09:09:50;;;;;;;6.70;3.53;;;;;;;-4.10;84.38;102338.38;5048544;28;20202;-82
2022/12/18 09:12:17;;;;;;;4.50;3.03;;;;;;;-4.00;83.97;102342.09;5050644;28;20218;-82
2022/12/18 09:14:46;;;;;;;5.10;2.37;;;;;;;-3.96;83.87;102326.59;5050843;28;20206;-84
2022/12/18 09:17:13;;;;;;;5.37;3.37;;;;;;;-3.91;83.62;102326.69;5051529;28;20200;-82
2022/12/18 09:19:40;;;;;;;4.83;3.20;;;;;;;-3.85;83.48;102322.50;5058544;28;20210;-81
2022/12/18 09:22:07;;;;;;;4.57;2.97;;;;;;;-3.80;83.54;102321.72;5052597;28;20221;-81
2022/12/18 09:24:34;;;;;;;4.90;3.07;;;;;;;-3.73;83.18;102323.59;5048637;28;20626;-81
2022/12/18 09:27:01;;;;;;;4.30;2.90;;;;;;;-3.70;83.21;102319.34;5053883;28;20210;-82
2022/12/18 09:29:27;;;;;;;4.93;2.60;;;;;;;-3.65;83.20;102309.91;5049894;28;20214;-82
2022/12/18 09:31:54;;;;;;;3.20;2.87;;;;;;;-3.59;82.96;102320.47;5049714;28;20225;-83
2022/12/18 09:34:21;;;;;;;6.13;3.10;;;;;;;-3.53;82.72;102312.75;5049541;28;20201;-82
2022/12/18 09:36:48;;;;;;;4.03;3.30;;;;;;;-3.47;82.75;102318.97;5050174;28;20202;-83
2022/12/18 09:39:16;;;;;;;7.00;3.83;;;;;;;-3.42;82.76;102319.94;5049768;28;20473;-81
2022/12/18 09:41:47;;;;;;;8.47;4.23;;;;;;;-3.40;82.28;102310.44;5046131;28;20236;-83
2022/12/18 09:44:20;;;;;;;7.47;4.57;;;;;;;-3.37;82.42;102316.56;5054451;28;20252;-82
2022/12/18 09:46:53;;;;;;;5.43;4.20;;;;;;;-3.35;82.14;102324.41;5059307;28;20228;-83
2022/12/18 09:49:24;;;;;;;7.63;4.37;;;;;;;-3.33;82.23;102321.00;5054670;28;20197;-83
2022/12/18 09:51:55;;;;;;;7.93;4.50;;;;;;;-3.29;81.85;102327.16;5044797;28;20222;-81
2022/12/18 09:54:27;;;;;;;8.00;5.43;;;;;;;-3.26;82.14;102333.31;5047511;28;20201;-81
2022/12/18 09:56:53;;;;;;;6.77;3.47;;;;;;;-3.23;82.17;102325.56;5047143;28;20204;-83
2022/12/18 09:59:25;;;;;;;6.13;3.70;;;;;;;-3.19;81.96;102331.69;5044845;28;20764;-79
2022/12/18 10:01:52;;;;;;;4.20;3.30;;;;;;;-3.14;81.79;102340.47;5053833;28;20275;-80
2022/12/18 10:04:19;;;;;;;4.60;3.13;;;;;;;-3.08;81.68;102345.81;5054880;28;20371;-80
2022/12/18 10:06:53;;;;;;;4.13;2.47;;;;;;;-2.99;81.58;102345.09;5054664;28;20209;-80
2022/12/18 10:09:34;;;;;;;3.47;2.37;;;;;;;-2.91;81.63;102344.41;5055247;28;20190;-79
2022/12/18 10:12:09;;;;;;;3.13;2.23;;;;;;;-2.78;81.65;102331.59;5054979;28;20229;-81
2022/12/18 10:14:43;;;;;;;6.00;2.60;;;;;;;-2.67;81.54;102332.63;5054571;28;20554;-81
2022/12/18 10:17:22;;;;;;;4.37;2.63;;;;;;;-2.57;80.82;102331.97;5054705;28;20186;-81
2022/12/18 10:19:53;;;;;;;2.53;2.00;;;;;;;-2.46;80.17;102327.78;5054456;28;20789;-81
2022/12/18 10:22:30;;;;;;;3.10;2.17;;;;;;;-2.37;79.79;102335.78;5054131;28;20620;-81
2022/12/18 10:25:04;;;;;;;4.03;1.57;;;;;;;-2.26;79.19;102331.59;5047551;28;20222;-83
2022/12/18 10:27:31;;;;;;;2.33;1.77;;;;;;;-2.18;78.71;102326.53;5046051;28;20202;-85
2022/12/18 10:29:58;;;;;;;2.70;2.00;;;;;;;-2.12;78.25;102330.09;5046867;28;20210;-84
2022/12/18 10:32:26;;;;;;;3.43;1.57;;;;;;;-2.07;77.82;102327.56;5043296;28;20209;-82
2022/12/18 10:34:55;;;;;;;2.70;1.93;;;;;;;-2.03;77.54;102328.47;5047181;28;20567;-83
2022/12/18 10:37:25;;;;;;;3.40;1.80;;;;;;;-1.97;77.05;102318.16;5048165;28;20818;-86
2022/12/18 10:40:11;;;;;;;2.93;1.63;;;;;;;-1.93;76.68;102314.69;5044067;28;20206;-83
2022/12/18 10:42:40;;;;;;;3.47;2.10;;;;;;;-1.88;76.08;102323.47;5048311;28;20234;-82
2022/12/18 10:45:11;;;;;;;4.17;1.80;;;;;;;-1.83;75.98;102327.94;5050255;28;20237;-83
2022/12/18 10:47:44;;;;;;;3.03;1.40;;;;;;;-1.78;75.88;102335.81;5052360;28;20206;-83
2022/12/18 10:50:21;;;;;;;3.33;2.03;;;;;;;-1.75;75.52;102328.00;5050428;28;20235;-84
2022/12/18 10:52:55;;;;;;;2.50;1.67;;;;;;;-1.71;75.41;102316.75;5046941;28;20213;-83
2022/12/18 10:55:25;;;;;;;3.23;1.73;;;;;;;-1.66;75.16;102325.53;5047717;28;20197;-83
2022/12/18 10:57:51;;;;;;;2.77;1.67;;;;;;;-1.62;74.84;102316.91;5048462;28;20202;-84
2022/12/18 11:00:27;;;;;;;4.33;1.87;;;;;;;-1.60;74.82;102315.16;5048356;28;20575;-83
2022/12/18 11:02:55;;;;;;;4.77;1.90;;;;;;;-1.55;74.06;102312.59;5048700;28;20202;-83
2022/12/18 11:05:28;;;;;;;4.67;2.67;;;;;;;-1.51;73.86;102301.34;5051890;28;20205;-84
2022/12/18 11:07:55;;;;;;;2.33;2.00;;;;;;;-1.48;73.80;102297.03;5047409;28;20214;-84
2022/12/18 11:10:26;;;;;;;3.93;2.10;;;;;;;-1.45;73.86;102299.69;5047467;28;20222;-83
2022/12/18 11:12:53;;;;;;;2.43;1.60;;;;;;;-1.43;73.82;102295.34;5053334;28;20206;-84
2022/12/18 11:15:22;;;;;;;4.07;1.77;;;;;;;-1.40;73.30;102276.22;5053518;28;20201;-84
2022/12/18 11:17:54;;;;;;;2.50;1.93;;;;;;;-1.35;73.08;102278.88;5045503;28;20220;-84
2022/12/18 11:20:28;;;;;;;4.67;3.27;;;;;;;-1.30;73.01;102267.63;5051583;28;20222;-84
2022/12/18 11:22:59;;;;;;;3.63;1.97;;;;;;;-1.24;72.96;102277.25;5049695;28;20212;-84
2022/12/18 11:25:27;;;;;;;3.37;1.97;;;;;;;-1.21;72.78;102286.00;5045783;28;20221;-83
2022/12/18 11:27:57;;;;;;;3.50;2.53;;;;;;;-1.19;72.41;102284.28;5041919;28;20213;-84
2022/12/18 11:30:26;;;;;;;4.23;3.43;;;;;;;-1.14;71.94;102284.34;5043013;28;20253;-83
2022/12/18 11:33:00;;;;;;;3.37;2.10;;;;;;;-1.13;71.54;102287.00;5044242;28;20206;-84